Gordon V.sr. — WDB8505 — position and weather

sailwx.info

Track history (hours):
 
Tides and Currents Weather Stations Pressure Air Temp Water Temp Dewpoint Dewpoint Depression Visibility Wind Speed Wind Dir Waves Ship Positions

Gordon V.sr.

Owner: B&G TOWING L.L.C., Lafitte, LA. More information available from US FCC via Universal Licensing System and Coast Guard Vessel Documentation Center.

Last reported at 2015-Mar-04 22:31 UTC. Time now 2015-Mar-04 22:49 UTC.
Position N 29°58' W 090°02'.

MMSI: 365910942.

Date/timePositionNaut miles runAvg speedWind from/ knotsBaromVisibWave heightAir tempDewpointWater temp
2015-Mar-04 22:31N 29°58' W 090°02'1 1.1
2015-Mar-04 21:24N 29°57' W 090°01'0 0.5
2015-Mar-04 20:27N 29°56' W 090°01'0 0.1
2015-Mar-04 19:05N 29°57' W 090°01'0 0.3
2015-Mar-04 18:27N 29°56' W 090°01'0 0.0
2015-Mar-04 17:32N 29°56' W 090°01'0 0.0
2015-Mar-04 16:26N 29°56' W 090°01'0 0.0
2015-Mar-03 15:31N 29°56' W 090°01'0 0.0
2015-Mar-03 14:30N 29°56' W 090°01'0 0.0
2015-Mar-03 13:29N 29°56' W 090°01'0 0.0
2015-Mar-03 11:19N 29°56' W 090°01'0 0.0
2015-Mar-03 10:32N 29°56' W 090°01'0 0.0
2015-Mar-03 09:31N 29°56' W 090°01'0 0.0
2015-Mar-03 08:31N 29°56' W 090°01'0 0.0
2015-Mar-03 07:31N 29°56' W 090°01'0 0.0
2015-Mar-03 06:33N 29°56' W 090°01'0 0.0
2015-Mar-03 05:33N 29°56' W 090°01'0 0.0
2015-Mar-03 04:32N 29°56' W 090°01'0 0.0
2015-Mar-03 03:28N 29°56' W 090°01'0 0.0
2015-Mar-03 02:30N 29°56' W 090°01'0 0.0
2015-Mar-03 01:32N 29°56' W 090°01'0 0.0
2015-Mar-03 00:31N 29°56' W 090°01'0 0.0
2015-Mar-02 23:33N 29°56' W 090°01'0 0.0
2015-Mar-02 22:33N 29°56' W 090°01'0 0.0
2015-Mar-02 21:31N 29°56' W 090°01'0 0.0
2015-Mar-02 20:31N 29°56' W 090°01'0 0.0
2015-Mar-02 19:33N 29°56' W 090°01'0 0.0
2015-Mar-02 18:32N 29°56' W 090°01'0 0.0
2015-Mar-02 17:33N 29°56' W 090°01'0 0.0
2015-Mar-02 16:30N 29°56' W 090°01'0 0.0
2015-Mar-02 15:10N 29°56' W 090°01'0 0.0
2015-Mar-02 03:22N 29°56' W 090°01'0 0.0
2015-Mar-02 01:07N 29°56' W 090°01'0 0.0
2015-Mar-02 00:19N 29°56' W 090°01'0 0.0
2015-Mar-01 23:28N 29°56' W 090°01'0 0.0
2015-Mar-01 22:32N 29°56' W 090°01'0 0.0
2015-Mar-01 21:32N 29°56' W 090°01'0 0.0
2015-Mar-01 20:30N 29°56' W 090°01'0 0.0
2015-Mar-01 19:32N 29°56' W 090°01'0 0.0
2015-Mar-01 18:33N 29°56' W 090°01'0 0.0
2015-Mar-01 17:32N 29°56' W 090°01'0 0.0
2015-Mar-01 16:32N 29°56' W 090°01'0 0.0
2015-Mar-01 15:32N 29°56' W 090°01'0 0.0
2015-Mar-01 14:32N 29°56' W 090°01'0 0.0
2015-Mar-01 06:27N 29°56' W 090°01'0 0.0
2015-Mar-01 05:29N 29°56' W 090°01'0 0.0
2015-Mar-01 04:33N 29°56' W 090°01'0 0.0
2015-Mar-01 03:10N 29°56' W 090°01'0 0.0
2015-Mar-01 02:24N 29°56' W 090°01'0 0.0
2015-Mar-01 01:33N 29°56' W 090°01'0 0.0
2015-Mar-01 00:33N 29°56' W 090°01'0 0.0
2015-Feb-28 23:31N 29°56' W 090°01'0 0.0
2015-Feb-28 22:33N 29°56' W 090°01'0 0.0
2015-Feb-28 21:31N 29°56' W 090°01'0 0.0
2015-Feb-28 20:31N 29°56' W 090°01'1 1.3
2015-Feb-28 19:33N 29°57' W 090°02'3 2.8
2015-Feb-28 18:33N 29°60' W 090°00'3 0.6
2015-Feb-28 12:32N 29°56' W 090°01'0 0.0
2015-Feb-28 11:33N 29°56' W 090°01'0 0.0
2015-Feb-28 10:32N 29°56' W 090°01'0 0.4
2015-Feb-28 09:32N 29°57' W 090°01'1 1.4
2015-Feb-28 08:33N 29°58' W 090°02'1 1.3
2015-Feb-28 07:33N 29°59' W 090°01'4 4.2
2015-Feb-28 06:33N 30°00' W 089°56'2 0.1
2015-Feb-27 05:12N 29°60' W 089°59'3 3.9
2015-Feb-27 04:33N 29°58' W 090°01'1 1.1
2015-Feb-27 03:33N 29°57' W 090°01'1 0.8
2015-Feb-27 02:33N 29°57' W 090°01'0 0.2
2015-Feb-27 01:31N 29°57' W 090°01'2 2.4
2015-Feb-27 00:32N 29°57' W 090°03'4 3.5
2015-Feb-26 23:25N 29°55' W 090°07'2 2.7
2015-Feb-26 22:31N 29°57' W 090°09'4 3.8
2015-Feb-26 21:32N 29°55' W 090°05'1 0.0
2015-Feb-24 19:33N 29°53' W 090°05'0 0.0
2015-Feb-24 13:10N 29°53' W 090°05'0 0.0
2015-Feb-24 12:26N 29°53' W 090°05'0 0.0
2015-Feb-24 11:32N 29°53' W 090°05'0 0.0
2015-Feb-24 10:29N 29°53' W 090°05'0 0.0
2015-Feb-24 09:18N 29°53' W 090°05'0 0.0
2015-Feb-23 22:24N 29°53' W 090°05'0 0.0
2015-Feb-23 21:29N 29°53' W 090°05'0 0.0
2015-Feb-23 20:20N 29°53' W 090°05'0 0.0
2015-Feb-23 19:33N 29°53' W 090°05'0 0.0
2015-Feb-23 18:32N 29°53' W 090°05'1 0.5
2015-Feb-23 17:29N 29°54' W 090°05'3 3.1
2015-Feb-23 16:33N 29°56' W 090°04'3 2.5
2015-Feb-23 15:28N 29°56' W 090°01'0 0.0
2015-Feb-23 14:33N 29°56' W 090°01'0 0.0
2015-Feb-23 13:31N 29°56' W 090°01'0 0.0
2015-Feb-23 12:33N 29°56' W 090°01'0 0.0
2015-Feb-23 11:32N 29°56' W 090°01'0 0.0
2015-Feb-23 10:32N 29°56' W 090°01'0 0.0
2015-Feb-23 09:30N 29°56' W 090°01'0 0.0
2015-Feb-23 08:33N 29°56' W 090°01'0 0.0
2015-Feb-23 07:22N 29°56' W 090°01'0 0.0
2015-Feb-22 23:05N 29°56' W 090°01'  
Track history (hours):
 
Tides and Currents Weather Stations Pressure Air Temp Water Temp Dewpoint Dewpoint Depression Visibility Wind Speed Wind Dir Waves Ship Positions

Gordon V.sr.

Owner: B&G TOWING L.L.C., Lafitte, LA. More information available from US FCC via Universal Licensing System and Coast Guard Vessel Documentation Center.

Last reported at 2015-Mar-04 22:31 UTC. Time now 2015-Mar-04 22:49 UTC.
Position N 29°58' W 090°02'.

MMSI: 365910942.

Date/timePositionNaut miles runAvg speedWind from/ knotsBaromVisibWave heightAir tempDewpointWater temp
2015-Mar-04 22:31N 29°58' W 090°02'1 1.1
2015-Mar-04 21:24N 29°57' W 090°01'0 0.5
2015-Mar-04 20:27N 29°56' W 090°01'0 0.1
2015-Mar-04 19:05N 29°57' W 090°01'0 0.3
2015-Mar-04 18:27N 29°56' W 090°01'0 0.0
2015-Mar-04 17:32N 29°56' W 090°01'0 0.0
2015-Mar-04 16:26N 29°56' W 090°01'0 0.0
2015-Mar-03 15:31N 29°56' W 090°01'0 0.0
2015-Mar-03 14:30N 29°56' W 090°01'0 0.0
2015-Mar-03 13:29N 29°56' W 090°01'0 0.0
2015-Mar-03 11:19N 29°56' W 090°01'0 0.0
2015-Mar-03 10:32N 29°56' W 090°01'0 0.0
2015-Mar-03 09:31N 29°56' W 090°01'0 0.0
2015-Mar-03 08:31N 29°56' W 090°01'0 0.0
2015-Mar-03 07:31N 29°56' W 090°01'0 0.0
2015-Mar-03 06:33N 29°56' W 090°01'0 0.0
2015-Mar-03 05:33N 29°56' W 090°01'0 0.0
2015-Mar-03 04:32N 29°56' W 090°01'0 0.0
2015-Mar-03 03:28N 29°56' W 090°01'0 0.0
2015-Mar-03 02:30N 29°56' W 090°01'0 0.0
2015-Mar-03 01:32N 29°56' W 090°01'0 0.0
2015-Mar-03 00:31N 29°56' W 090°01'0 0.0
2015-Mar-02 23:33N 29°56' W 090°01'0 0.0
2015-Mar-02 22:33N 29°56' W 090°01'0 0.0
2015-Mar-02 21:31N 29°56' W 090°01'0 0.0
2015-Mar-02 20:31N 29°56' W 090°01'0 0.0
2015-Mar-02 19:33N 29°56' W 090°01'0 0.0
2015-Mar-02 18:32N 29°56' W 090°01'0 0.0
2015-Mar-02 17:33N 29°56' W 090°01'0 0.0
2015-Mar-02 16:30N 29°56' W 090°01'0 0.0
2015-Mar-02 15:10N 29°56' W 090°01'0 0.0
2015-Mar-02 03:22N 29°56' W 090°01'0 0.0
2015-Mar-02 01:07N 29°56' W 090°01'0 0.0
2015-Mar-02 00:19N 29°56' W 090°01'0 0.0
2015-Mar-01 23:28N 29°56' W 090°01'0 0.0
2015-Mar-01 22:32N 29°56' W 090°01'0 0.0
2015-Mar-01 21:32N 29°56' W 090°01'0 0.0
2015-Mar-01 20:30N 29°56' W 090°01'0 0.0
2015-Mar-01 19:32N 29°56' W 090°01'0 0.0
2015-Mar-01 18:33N 29°56' W 090°01'0 0.0
2015-Mar-01 17:32N 29°56' W 090°01'0 0.0
2015-Mar-01 16:32N 29°56' W 090°01'0 0.0
2015-Mar-01 15:32N 29°56' W 090°01'0 0.0
2015-Mar-01 14:32N 29°56' W 090°01'0 0.0
2015-Mar-01 06:27N 29°56' W 090°01'0 0.0
2015-Mar-01 05:29N 29°56' W 090°01'0 0.0
2015-Mar-01 04:33N 29°56' W 090°01'0 0.0
2015-Mar-01 03:10N 29°56' W 090°01'0 0.0
2015-Mar-01 02:24N 29°56' W 090°01'0 0.0
2015-Mar-01 01:33N 29°56' W 090°01'0 0.0
2015-Mar-01 00:33N 29°56' W 090°01'0 0.0
2015-Feb-28 23:31N 29°56' W 090°01'0 0.0
2015-Feb-28 22:33N 29°56' W 090°01'0 0.0
2015-Feb-28 21:31N 29°56' W 090°01'0 0.0
2015-Feb-28 20:31N 29°56' W 090°01'1 1.3
2015-Feb-28 19:33N 29°57' W 090°02'3 2.8
2015-Feb-28 18:33N 29°60' W 090°00'3 0.6
2015-Feb-28 12:32N 29°56' W 090°01'0 0.0
2015-Feb-28 11:33N 29°56' W 090°01'0 0.0
2015-Feb-28 10:32N 29°56' W 090°01'0 0.4
2015-Feb-28 09:32N 29°57' W 090°01'1 1.4
2015-Feb-28 08:33N 29°58' W 090°02'1 1.3
2015-Feb-28 07:33N 29°59' W 090°01'4 4.2
2015-Feb-28 06:33N 30°00' W 089°56'2 0.1
2015-Feb-27 05:12N 29°60' W 089°59'3 3.9
2015-Feb-27 04:33N 29°58' W 090°01'1 1.1
2015-Feb-27 03:33N 29°57' W 090°01'1 0.8
2015-Feb-27 02:33N 29°57' W 090°01'0 0.2
2015-Feb-27 01:31N 29°57' W 090°01'2 2.4
2015-Feb-27 00:32N 29°57' W 090°03'4 3.5
2015-Feb-26 23:25N 29°55' W 090°07'2 2.7
2015-Feb-26 22:31N 29°57' W 090°09'4 3.8
2015-Feb-26 21:32N 29°55' W 090°05'1 0.0
2015-Feb-24 19:33N 29°53' W 090°05'0 0.0
2015-Feb-24 13:10N 29°53' W 090°05'0 0.0
2015-Feb-24 12:26N 29°53' W 090°05'0 0.0
2015-Feb-24 11:32N 29°53' W 090°05'0 0.0
2015-Feb-24 10:29N 29°53' W 090°05'0 0.0
2015-Feb-24 09:18N 29°53' W 090°05'0 0.0
2015-Feb-23 22:24N 29°53' W 090°05'0 0.0
2015-Feb-23 21:29N 29°53' W 090°05'0 0.0
2015-Feb-23 20:20N 29°53' W 090°05'0 0.0
2015-Feb-23 19:33N 29°53' W 090°05'0 0.0
2015-Feb-23 18:32N 29°53' W 090°05'1 0.5
2015-Feb-23 17:29N 29°54' W 090°05'3 3.1
2015-Feb-23 16:33N 29°56' W 090°04'3 2.5
2015-Feb-23 15:28N 29°56' W 090°01'0 0.0
2015-Feb-23 14:33N 29°56' W 090°01'0 0.0
2015-Feb-23 13:31N 29°56' W 090°01'0 0.0
2015-Feb-23 12:33N 29°56' W 090°01'0 0.0
2015-Feb-23 11:32N 29°56' W 090°01'0 0.0
2015-Feb-23 10:32N 29°56' W 090°01'0 0.0
2015-Feb-23 09:30N 29°56' W 090°01'0 0.0
2015-Feb-23 08:33N 29°56' W 090°01'0 0.0
2015-Feb-23 07:22N 29°56' W 090°01'0 0.0
2015-Feb-22 23:05N 29°56' W 090°01'  

Dump ship's entire track history